Time;durP1;ratioP1;P1;durP2;ratioP2;P2;SDS_P1;SDS_P2;PMS_P1;PMS_P2;Temp;Humidity;BMP_temperature;BMP_pressure;BME280_temperature;BME280_humidity;BME280_pressure;Samples;Min_cycle;Max_cycle;Signal;HPM_P1;HPM_P2
2023/03/02 00:01:33;;;;;;;318.73;58.53;;;0.90;99.90;;;0.07;80.80;99110.81;4914703;28;20235;-82
2023/03/02 00:04:03;;;;;;;331.77;65.07;;;0.10;99.90;;;0.01;80.88;99110.66;4911807;28;20235;-82
2023/03/02 00:06:33;;;;;;;314.33;57.57;;;0.10;99.90;;;-0.04;80.93;99116.56;4913015;29;20243;-82
2023/03/02 00:09:03;;;;;;;332.43;63.17;;;0.80;99.90;;;0.03;81.12;99122.84;4913381;28;20235;-82
2023/03/02 00:11:31;;;;;;;332.83;63.40;;;0.90;99.90;;;0.09;81.10;99129.94;4915740;28;20239;-82
2023/03/02 00:13:58;;;;;;;335.67;65.47;;;0.20;99.90;;;0.01;81.16;99123.63;4914399;29;20243;-82
2023/03/02 00:16:25;;;;;;;325.73;61.67;;;0.10;99.90;;;0.04;81.10;99126.34;4914085;28;20277;-82
2023/03/02 00:18:53;;;;;;;327.27;61.00;;;0.50;99.90;;;0.05;81.03;99134.19;4911069;28;20615;-82
2023/03/02 00:21:20;;;;;;;320.37;59.23;;;0.20;99.90;;;0.04;81.23;99139.31;4915160;28;20239;-82
2023/03/02 00:23:47;;;;;;;326.60;61.53;;;0.80;99.90;;;-0.02;81.16;99147.78;4912088;28;20318;-83
2023/03/02 00:26:14;;;;;;;325.47;59.93;;;0.30;99.90;;;-0.02;81.34;99143.47;4917568;28;20246;-82
2023/03/02 00:28:41;;;;;;;318.20;59.47;;;0.30;99.90;;;-0.07;81.44;99151.97;4920224;28;20227;-82
2023/03/02 00:31:08;;;;;;;337.13;66.43;;;0.70;99.90;;;-0.10;81.77;99162.25;4917290;29;20239;-82
2023/03/02 00:33:35;;;;;;;322.73;60.47;;;0.00;99.90;;;-0.03;81.62;99170.28;4915771;28;20238;-82
2023/03/02 00:36:02;;;;;;;323.70;60.80;;;0.20;99.90;;;-0.11;81.65;99178.69;4916310;28;20707;-82
2023/03/02 00:38:30;;;;;;;324.73;62.03;;;0.10;99.90;;;-0.08;81.79;99182.25;4916760;28;20325;-82
2023/03/02 00:40:58;;;;;;;336.70;65.00;;;0.10;99.90;;;-0.03;81.64;99192.81;4914807;28;20238;-82
2023/03/02 00:43:26;;;;;;;323.23;60.07;;;0.60;99.90;;;-0.15;81.95;99180.31;4913198;28;20256;-82
2023/03/02 00:45:54;;;;;;;340.70;64.80;;;0.00;99.90;;;-0.18;82.08;99181.94;4914318;28;20247;-82
2023/03/02 00:48:21;;;;;;;331.77;63.97;;;0.70;99.90;;;-0.26;82.17;99186.88;4914002;28;20250;-82
2023/03/02 00:50:49;;;;;;;331.30;64.03;;;-0.10;99.90;;;-0.20;82.24;99197.47;4913798;28;20262;-82
2023/03/02 00:53:16;;;;;;;322.00;59.60;;;0.50;99.90;;;-0.24;82.66;99202.50;4928526;29;20798;-82
2023/03/02 00:55:53;;;;;;;319.10;59.43;;;-0.10;99.90;;;-0.27;82.65;99202.41;4912086;28;20262;-82
2023/03/02 00:58:21;;;;;;;331.57;63.20;;;0.70;99.90;;;-0.27;82.72;99207.63;4911402;28;20234;-82
2023/03/02 01:00:48;;;;;;;325.20;60.67;;;-0.20;99.90;;;-0.37;83.02;99211.63;4912432;28;20238;-82
2023/03/02 01:03:15;;;;;;;334.13;64.00;;;0.60;99.90;;;-0.29;82.95;99217.06;4912122;28;20230;-81
2023/03/02 01:05:42;;;;;;;337.37;64.53;;;-0.20;99.90;;;-0.41;82.90;99215.84;4910737;29;20230;-82
2023/03/02 01:08:10;;;;;;;328.53;61.00;;;0.10;99.90;;;-0.38;83.44;99226.34;4926547;29;20243;-82
2023/03/02 01:10:38;;;;;;;333.23;62.13;;;-0.30;99.90;;;-0.29;82.98;99230.94;4912173;29;20688;-82
2023/03/02 01:13:07;;;;;;;317.70;60.03;;;0.10;99.90;;;-0.36;82.98;99235.06;4912369;29;20231;-82
2023/03/02 01:15:34;;;;;;;339.30;65.57;;;0.20;99.90;;;-0.39;83.21;99232.34;4909426;28;20230;-82
2023/03/02 01:18:01;;;;;;;325.63;60.33;;;0.30;99.90;;;-0.34;83.17;99237.69;4910527;28;20243;-82
2023/03/02 01:20:28;;;;;;;335.57;63.40;;;0.60;99.90;;;-0.34;83.11;99233.41;4911884;29;20715;-82
2023/03/02 01:22:55;;;;;;;328.77;62.23;;;-0.20;99.90;;;-0.32;83.04;99243.84;4909424;28;20326;-81
2023/03/02 01:25:22;;;;;;;341.10;65.03;;;-0.20;99.90;;;-0.47;83.42;99236.41;4912910;29;20676;-82
2023/03/02 01:27:50;;;;;;;320.30;58.10;;;-0.30;99.90;;;-0.51;83.51;99241.47;4912382;28;20343;-82
2023/03/02 01:30:17;;;;;;;321.50;59.27;;;-0.40;99.90;;;-0.51;83.67;99244.94;4910621;29;20299;-82
2023/03/02 01:32:44;;;;;;;319.87;58.13;;;-0.40;99.90;;;-0.52;83.65;99253.56;4912775;28;20247;-82
2023/03/02 01:35:12;;;;;;;323.97;60.50;;;0.20;99.90;;;-0.53;83.97;99257.00;4915375;29;20250;-82
2023/03/02 01:37:39;;;;;;;316.33;58.00;;;-0.40;99.90;;;-0.49;83.79;99265.75;4919200;29;20235;-82
2023/03/02 01:40:08;;;;;;;319.93;57.77;;;-0.40;99.90;;;-0.53;83.69;99262.19;4918424;28;20239;-82
2023/03/02 01:42:45;;;;;;;323.03;60.07;;;-0.40;99.90;;;-0.60;84.08;99265.41;4915597;28;20243;-83
2023/03/02 01:46:00;;;;;;;322.83;58.63;;;0.40;99.90;;;-0.53;84.13;99264.78;4902866;29;20235;-83
2023/03/02 01:48:35;;;;;;;312.37;55.63;;;-0.40;99.90;;;-0.58;84.18;99263.72;4915100;29;20227;-82
2023/03/02 01:51:06;;;;;;;325.97;59.80;;;-0.40;99.90;;;-0.59;84.13;99267.16;4914298;28;20247;-82
2023/03/02 01:53:35;;;;;;;327.57;60.60;;;-0.50;99.90;;;-0.49;84.17;99278.75;4915799;29;20227;-82
2023/03/02 01:56:04;;;;;;;326.73;60.83;;;-0.40;99.90;;;-0.45;83.84;99286.69;4915763;29;20282;-82
2023/03/02 01:58:35;;;;;;;339.20;64.93;;;-0.40;99.90;;;-0.48;83.94;99280.50;4912648;29;20262;-82
2023/03/02 02:01:03;;;;;;;332.00;61.87;;;0.30;99.90;;;-0.42;83.74;99285.91;4916216;28;20254;-82
2023/03/02 02:03:31;;;;;;;333.90;62.20;;;-0.30;99.90;;;-0.47;83.84;99277.97;4915439;29;20236;-82
2023/03/02 02:06:23;;;;;;;329.67;61.63;;;-0.30;99.90;;;-0.49;83.66;99283.94;4914033;29;20235;-82
2023/03/02 02:08:53;;;;;;;323.37;59.63;;;-0.30;99.90;;;-0.57;84.04;99275.88;4917413;28;20231;-82
2023/03/02 02:11:20;;;;;;;316.03;56.73;;;-0.40;99.90;;;-0.62;84.08;99271.38;4916189;29;20235;-82
2023/03/02 02:13:47;;;;;;;343.07;65.80;;;0.00;99.90;;;-0.65;84.07;99283.41;4919560;28;20239;-82
2023/03/02 02:16:15;;;;;;;340.53;65.27;;;-0.50;99.90;;;-0.67;84.28;99282.47;4916483;29;20294;-82
2023/03/02 02:18:43;;;;;;;321.97;58.77;;;-0.50;99.90;;;-0.74;84.59;99287.41;4915811;28;20227;-82
2023/03/02 02:21:10;;;;;;;325.00;58.97;;;-0.60;99.90;;;-0.69;84.60;99304.03;4899163;29;20247;-82
2023/03/02 02:24:00;;;;;;;320.20;60.70;;;-0.60;99.90;;;-0.72;84.77;99304.78;4919999;28;20246;-82
2023/03/02 02:26:36;;;;;;;323.17;58.77;;;0.10;99.90;;;-0.68;84.88;99310.97;4918203;29;20282;-82
2023/03/02 02:29:13;;;;;;;323.47;59.23;;;-0.50;99.90;;;-0.58;84.49;99323.44;4894696;29;20234;-82
2023/03/02 02:31:47;;;;;;;325.47;62.33;;;-0.30;99.90;;;-0.63;84.63;99324.13;4915045;29;20242;-82
2023/03/02 02:34:30;;;;;;;322.60;58.70;;;-0.50;99.90;;;-0.58;84.58;99325.16;4892893;29;20235;-83
2023/03/02 02:37:11;;;;;;;334.07;63.33;;;-0.50;99.90;;;-0.68;84.49;99324.84;4909670;28;20294;-83
2023/03/02 02:39:43;;;;;;;313.67;56.07;;;-0.50;99.90;;;-0.63;84.56;99329.31;4924574;29;20707;-82
2023/03/02 02:42:27;;;;;;;317.80;58.03;;;0.10;99.90;;;-0.58;84.33;99330.34;4913031;29;20696;-82
2023/03/02 02:44:58;;;;;;;323.03;58.80;;;-0.50;99.90;;;-0.56;84.36;99336.50;4910960;28;20322;-82
2023/03/02 02:47:26;;;;;;;316.13;56.83;;;-0.40;99.90;;;-0.65;84.25;99327.53;4911020;29;20310;-82
2023/03/02 02:49:55;;;;;;;324.73;59.87;;;0.00;99.90;;;-0.54;84.09;99337.44;4891888;29;20259;-82
2023/03/02 02:52:26;;;;;;;317.10;58.13;;;-0.40;99.90;;;-0.59;84.08;99326.00;4925177;28;20629;-82
2023/03/02 02:54:55;;;;;;;320.63;58.13;;;0.40;99.90;;;-0.64;84.01;99338.81;4911134;28;20242;-82
2023/03/02 02:57:26;;;;;;;321.43;58.77;;;-0.50;99.90;;;-0.62;84.07;99347.53;4910709;29;20255;-82
2023/03/02 02:59:58;;;;;;;357.13;72.03;;;-0.30;99.90;;;-0.72;84.03;99342.84;4906926;28;20247;-83
2023/03/02 03:02:29;;;;;;;319.80;58.63;;;-0.50;99.90;;;-0.73;84.29;99349.75;4914057;28;20231;-82
2023/03/02 03:05:01;;;;;;;325.57;61.47;;;-0.60;99.90;;;-0.76;84.52;99347.03;4904591;29;20249;-83
2023/03/02 03:07:32;;;;;;;333.43;63.60;;;-0.60;99.90;;;-0.85;84.71;99343.22;4910609;29;20595;-82
2023/03/02 03:10:33;;;;;;;317.47;57.50;;;-0.70;99.90;;;-0.79;84.67;99365.09;4911945;28;20302;-81
2023/03/02 03:13:01;;;;;;;322.40;58.03;;;-0.70;99.90;;;-0.78;84.84;99366.00;4924872;28;20242;-82
2023/03/02 03:15:28;;;;;;;325.80;59.70;;;-0.70;99.90;;;-0.80;84.52;99365.03;4912002;29;20258;-83
2023/03/02 03:17:57;;;;;;;314.97;57.10;;;-0.70;99.90;;;-0.81;84.86;99366.75;4910496;28;20231;-82
2023/03/02 03:20:25;;;;;;;330.20;60.60;;;-0.70;99.90;;;-0.77;84.84;99376.44;4911204;28;20235;-82
2023/03/02 03:22:53;;;;;;;339.77;65.33;;;-0.20;99.90;;;-0.79;84.66;99378.09;4912249;28;20277;-83
2023/03/02 03:25:25;;;;;;;325.30;60.83;;;-0.30;99.90;;;-0.77;84.40;99372.94;4914603;28;20243;-82
2023/03/02 03:27:52;;;;;;;333.07;62.67;;;-0.60;99.90;;;-0.81;84.25;99377.13;4912434;28;20294;-82
2023/03/02 03:30:21;;;;;;;325.03;59.40;;;-0.60;99.90;;;-0.83;84.48;99378.78;4911030;28;20243;-82
2023/03/02 03:32:48;;;;;;;326.77;60.97;;;-0.70;99.90;;;-0.80;84.42;99381.50;4912755;28;20247;-81
2023/03/02 03:35:15;;;;;;;314.67;56.30;;;-0.60;99.90;;;-0.82;84.44;99383.16;4915977;28;20612;-82
2023/03/02 03:37:42;;;;;;;327.20;60.77;;;-0.40;99.90;;;-0.83;84.35;99383.97;4912931;29;20274;-83
2023/03/02 03:40:10;;;;;;;317.90;57.07;;;-0.70;99.90;;;-0.90;84.53;99389.78;4909727;29;20235;-82
2023/03/02 03:42:38;;;;;;;321.87;59.43;;;-0.70;99.90;;;-0.93;84.65;99396.56;4912027;28;20267;-83
2023/03/02 03:45:07;;;;;;;311.80;55.40;;;-0.80;99.90;;;-0.93;84.64;99391.38;4915329;28;20246;-83
2023/03/02 03:47:35;;;;;;;325.10;59.60;;;-0.80;99.90;;;-0.90;84.63;99402.75;4907437;28;20227;-83
2023/03/02 03:50:03;;;;;;;322.13;59.77;;;-0.80;99.90;;;-0.86;84.54;99415.00;4908144;28;20239;-82
2023/03/02 03:52:30;;;;;;;331.97;61.87;;;-0.70;99.90;;;-0.85;84.60;99421.97;4910473;28;20250;-83
2023/03/02 03:54:59;;;;;;;323.30;59.03;;;-0.70;99.90;;;-0.87;84.51;99422.75;4910716;28;20246;-83
2023/03/02 03:57:27;;;;;;;323.33;60.00;;;-0.70;99.90;;;-0.87;84.56;99423.63;4913356;28;20270;-83
2023/03/02 03:59:55;;;;;;;332.73;63.97;;;0.10;99.90;;;-0.89;84.76;99425.28;4912150;28;20267;-82
2023/03/02 04:02:22;;;;;;;335.57;63.77;;;-0.80;99.90;;;-0.85;84.50;99437.53;4908663;29;20318;-83
2023/03/02 04:04:49;;;;;;;324.10;60.60;;;-0.70;99.90;;;-0.86;84.64;99433.19;4912981;28;20298;-82
2023/03/02 04:07:17;;;;;;;331.30;62.87;;;-0.70;99.90;;;-0.84;84.39;99438.44;4915383;28;20274;-82
2023/03/02 04:09:44;;;;;;;318.87;58.03;;;-0.50;99.90;;;-0.86;84.33;99450.47;4910538;29;20265;-83
2023/03/02 04:12:11;;;;;;;326.20;61.37;;;-0.70;99.90;;;-0.85;84.47;99449.63;4918001;28;20318;-82
2023/03/02 04:14:38;;;;;;;318.30;56.63;;;-0.10;99.90;;;-0.87;84.48;99440.91;4917927;28;20239;-82
2023/03/02 04:17:05;;;;;;;326.00;60.67;;;-0.70;99.90;;;-0.91;84.58;99459.78;4914368;28;20287;-82
2023/03/02 04:19:34;;;;;;;320.10;57.67;;;-0.70;99.90;;;-0.91;84.38;99449.41;4917078;28;20243;-86
2023/03/02 04:22:02;;;;;;;341.17;65.90;;;-0.70;99.90;;;-0.89;84.48;99460.72;4912361;28;20247;-82
2023/03/02 04:24:30;;;;;;;321.47;59.23;;;0.20;99.90;;;-0.95;84.74;99457.91;4915843;28;20254;-83
2023/03/02 04:26:58;;;;;;;321.03;59.17;;;-0.80;99.90;;;-0.91;84.73;99467.56;4916367;28;20258;-83
2023/03/02 04:29:25;;;;;;;313.83;57.13;;;-0.80;99.90;;;-1.02;85.08;99461.97;4916024;28;20306;-83
2023/03/02 04:31:52;;;;;;;315.17;56.90;;;-0.90;99.90;;;-1.03;85.10;99470.56;4915241;28;20239;-83
2023/03/02 04:34:20;;;;;;;311.93;55.53;;;-0.80;99.90;;;-1.03;85.20;99476.66;4914923;28;20705;-82
2023/03/02 04:36:47;;;;;;;315.90;56.60;;;-0.80;99.90;;;-1.05;85.37;99477.41;4916767;28;20310;-83
2023/03/02 04:39:16;;;;;;;322.37;59.67;;;-0.90;99.90;;;-1.03;85.27;99488.75;4916281;28;20254;-83
2023/03/02 04:41:44;;;;;;;318.50;56.60;;;-0.90;99.90;;;-1.04;85.26;99487.84;4917485;28;20287;-83
2023/03/02 04:44:13;;;;;;;318.17;57.33;;;-0.30;99.90;;;-1.01;85.48;99500.94;4931104;28;20275;-83
2023/03/02 04:46:41;;;;;;;312.00;55.77;;;-0.40;99.90;;;-1.08;85.46;99496.34;4917525;28;20254;-83
2023/03/02 04:49:11;;;;;;;315.07;57.50;;;-0.90;99.90;;;-0.97;85.38;99514.94;4916602;28;20248;-83
2023/03/02 04:51:42;;;;;;;311.73;58.77;;;-0.80;99.90;;;-1.00;85.52;99512.22;4917606;28;20249;-83
2023/03/02 04:54:27;;;;;;;318.30;57.87;;;-0.90;99.90;;;-1.05;85.44;99512.03;4906801;29;20235;-83
2023/03/02 04:56:54;;;;;;;317.00;57.73;;;-0.90;99.90;;;-1.02;85.54;99513.84;4910589;28;20294;-83
2023/03/02 04:59:26;;;;;;;329.83;106.23;;;-0.50;99.90;;;-1.05;85.46;99513.75;4915175;28;20235;-83
2023/03/02 05:01:57;;;;;;;333.43;62.47;;;-0.90;99.90;;;-1.02;85.46;99525.13;4910375;28;20263;-83
2023/03/02 05:04:25;;;;;;;314.67;54.80;;;-0.50;99.90;;;-1.01;85.52;99532.09;4909194;29;20235;-83
2023/03/02 05:06:52;;;;;;;316.97;56.83;;;-0.30;99.90;;;-1.02;85.31;99529.44;4912204;28;20243;-82
2023/03/02 05:09:25;;;;;;;311.67;54.93;;;-0.90;99.90;;;-1.07;85.78;99539.63;4914461;28;20254;-82
2023/03/02 05:11:58;;;;;;;321.40;58.17;;;-0.90;99.90;;;-1.07;85.58;99526.66;4909628;29;20239;-82
2023/03/02 05:14:26;;;;;;;316.47;57.03;;;-0.20;99.90;;;-1.12;85.66;99527.28;4898397;29;20261;-83
2023/03/02 05:16:53;;;;;;;312.73;55.73;;;-0.90;99.90;;;-1.14;86.05;99529.81;4913657;28;20295;-83
2023/03/02 05:19:20;;;;;;;314.20;56.37;;;-1.00;99.90;;;-1.17;85.84;99532.28;4914150;28;20249;-83
2023/03/02 05:21:48;;;;;;;324.20;58.60;;;-0.80;99.90;;;-1.14;86.06;99550.56;4913930;28;20240;-83
2023/03/02 05:24:15;;;;;;;324.13;63.03;;;-1.00;99.90;;;-1.15;86.01;99553.09;4913748;28;20235;-83
2023/03/02 05:26:42;;;;;;;322.13;60.57;;;-1.00;99.90;;;-1.19;86.14;99552.09;4913802;28;20302;-83
2023/03/02 05:29:09;;;;;;;323.50;59.70;;;-0.30;99.90;;;-1.16;85.90;99556.53;4914701;28;20239;-83
2023/03/02 05:31:41;;;;;;;328.17;65.87;;;-0.70;99.90;;;-1.16;86.25;99556.53;4910993;29;20275;-81
2023/03/02 05:34:11;;;;;;;327.37;61.97;;;-1.00;99.90;;;-1.20;86.54;99563.28;4907803;29;20727;-82
2023/03/02 05:36:38;;;;;;;312.80;58.30;;;-1.00;99.90;;;-1.24;86.47;99561.41;4915553;28;20239;-82
2023/03/02 05:39:07;;;;;;;321.23;60.97;;;-1.00;99.90;;;-1.31;86.65;99562.81;4917891;28;20786;-83
2023/03/02 05:41:35;;;;;;;332.67;80.07;;;-1.00;99.90;;;-1.32;86.91;99574.00;4916851;28;20670;-83
2023/03/02 05:44:08;;;;;;;313.67;56.17;;;-1.10;99.90;;;-1.36;87.04;99576.41;4914256;28;20238;-83
2023/03/02 05:46:35;;;;;;;312.63;54.77;;;-1.20;99.90;;;-1.40;87.64;99584.88;4913805;28;20239;-83
2023/03/02 05:49:03;;;;;;;327.03;59.77;;;-0.70;99.90;;;-1.36;87.57;99590.25;4910876;28;20384;-84
2023/03/02 05:51:30;;;;;;;318.43;57.57;;;-1.20;99.90;;;-1.32;87.61;99606.84;4911914;28;20235;-83
2023/03/02 05:53:57;;;;;;;330.50;61.00;;;-1.20;99.90;;;-1.33;87.96;99610.25;4909267;28;20258;-84
2023/03/02 05:56:24;;;;;;;324.53;59.33;;;-1.20;99.90;;;-1.22;87.86;99628.91;4910563;29;20254;-83
2023/03/02 05:58:51;;;;;;;323.13;57.60;;;-1.10;99.90;;;-1.26;87.86;99633.06;4909537;29;20243;-84
2023/03/02 06:01:18;;;;;;;318.87;57.60;;;-1.10;99.90;;;-1.19;87.83;99637.69;4911908;28;20302;-84
2023/03/02 06:03:45;;;;;;;327.10;60.23;;;-1.00;99.90;;;-1.26;87.77;99645.16;4911057;28;20297;-84
2023/03/02 06:06:12;;;;;;;325.63;58.30;;;-0.40;99.90;;;-1.22;87.74;99649.66;4913394;28;20282;-84
2023/03/02 06:08:42;;;;;;;314.60;55.20;;;-0.50;99.90;;;-1.27;87.91;99644.25;4916549;28;20239;-83
2023/03/02 06:11:10;;;;;;;323.77;59.37;;;-0.20;99.90;;;-1.19;87.97;99654.97;4914907;28;20306;-85
2023/03/02 06:13:38;;;;;;;319.60;57.17;;;-1.10;99.90;;;-1.21;87.97;99664.41;4906580;28;20231;-86
2023/03/02 06:16:09;;;;;;;319.90;59.33;;;-0.10;99.90;;;-1.21;88.19;99673.06;4915792;28;20235;-83
2023/03/02 06:18:37;;;;;;;312.27;53.80;;;-1.10;99.90;;;-1.24;88.16;99672.94;4915967;28;20254;-83
2023/03/02 06:21:07;;;;;;;324.83;61.10;;;-0.30;99.90;;;-1.20;88.09;99684.31;4905039;28;20614;-83
2023/03/02 06:23:34;;;;;;;318.57;56.70;;;-0.30;99.90;;;-1.24;88.39;99682.41;4920184;28;20315;-83
2023/03/02 06:26:08;;;;;;;319.13;56.90;;;-0.30;99.90;;;-1.21;88.37;99688.63;4910183;28;20303;-83
2023/03/02 06:28:36;;;;;;;319.80;56.57;;;-1.10;99.90;;;-1.17;88.27;99700.91;4910744;29;20286;-84
2023/03/02 06:31:17;;;;;;;329.13;60.93;;;-1.00;99.90;;;-1.09;87.95;99716.81;4904569;28;20241;-83
2023/03/02 06:33:44;;;;;;;327.33;59.63;;;-0.90;99.90;;;-1.04;87.90;99718.78;4904233;28;20307;-85
2023/03/02 06:36:11;;;;;;;327.47;59.30;;;-0.90;99.90;;;-0.89;87.70;99735.84;4911613;28;20298;-83
2023/03/02 06:38:39;;;;;;;319.40;57.37;;;0.10;99.90;;;-0.84;87.28;99742.13;4913605;28;20246;-85
2023/03/02 06:41:06;;;;;;;341.97;65.43;;;0.30;99.90;;;-0.85;87.27;99733.44;4914441;28;20235;-83
2023/03/02 06:43:33;;;;;;;319.23;57.53;;;-0.70;99.90;;;-0.89;87.34;99735.84;4913069;28;20235;-85
2023/03/02 06:46:00;;;;;;;318.17;56.97;;;-0.70;99.90;;;-0.89;87.09;99739.31;4908688;28;20247;-84
2023/03/02 06:48:28;;;;;;;317.10;56.63;;;-0.20;99.90;;;-0.80;87.02;99744.91;4912303;28;20239;-85
2023/03/02 06:50:55;;;;;;;313.27;54.93;;;-0.70;99.90;;;-0.73;86.77;99754.72;4898796;29;20239;-83
2023/03/02 06:53:22;;;;;;;335.03;62.57;;;-0.60;99.90;;;-0.76;86.74;99752.00;4913469;28;20238;-83
2023/03/02 06:55:50;;;;;;;316.73;56.67;;;-0.60;99.90;;;-0.71;86.57;99749.59;4913104;28;20247;-84
2023/03/02 06:58:17;;;;;;;321.70;58.70;;;-0.60;99.90;;;-0.67;86.34;99765.38;4912898;28;20235;-84
2023/03/02 07:00:45;;;;;;;332.47;62.93;;;0.00;99.90;;;-0.60;86.29;99760.44;4909820;28;20239;-84
2023/03/02 07:03:12;;;;;;;344.40;68.53;;;-0.50;99.90;;;-0.56;85.89;99763.22;4912182;29;20239;-88
2023/03/02 07:05:39;;;;;;;322.83;58.27;;;-0.40;99.90;;;-0.48;85.67;99767.03;4908840;28;20326;-85
2023/03/02 07:08:06;;;;;;;338.17;64.90;;;0.10;99.90;;;-0.39;85.29;99780.41;4905809;29;20326;-85
2023/03/02 07:10:34;;;;;;;317.03;57.57;;;-0.30;99.90;;;-0.35;85.10;99778.81;4910543;28;20235;-84
2023/03/02 07:13:01;;;;;;;314.43;58.67;;;0.20;99.90;;;-0.23;84.82;99791.44;4910789;29;20290;-86
2023/03/02 07:15:28;;;;;;;313.97;56.97;;;0.20;99.90;;;-0.15;84.41;99784.84;4915210;28;20302;-84
2023/03/02 07:17:55;;;;;;;323.17;58.70;;;0.40;99.90;;;-0.13;84.25;99789.28;4913749;28;20271;-86
2023/03/02 07:20:22;;;;;;;321.53;58.50;;;0.50;99.90;;;-0.05;83.96;99789.59;4914233;28;20290;-84
2023/03/02 07:22:49;;;;;;;328.00;61.63;;;0.20;99.90;;;0.01;83.72;99787.28;4912476;28;20407;-84
2023/03/02 07:25:16;;;;;;;327.83;59.50;;;0.10;99.90;;;0.09;83.53;99792.78;4911591;29;20381;-84
2023/03/02 07:27:43;;;;;;;327.23;61.03;;;0.20;99.90;;;0.06;83.53;99783.16;4900162;29;20239;-84
2023/03/02 07:30:11;;;;;;;329.33;62.07;;;0.60;99.90;;;0.15;82.84;99778.31;4907222;28;20278;-84
2023/03/02 07:32:38;;;;;;;338.37;63.83;;;0.20;99.90;;;0.20;82.82;99781.09;4913399;28;20334;-83
2023/03/02 07:35:06;;;;;;;321.97;60.70;;;0.50;99.90;;;0.24;82.45;99773.47;4904098;29;20243;-85
2023/03/02 07:37:33;;;;;;;327.90;60.27;;;0.30;99.90;;;0.33;82.46;99780.75;4884707;29;20239;-84
2023/03/02 07:40:00;;;;;;;321.50;59.27;;;1.30;99.90;;;0.41;82.38;99789.75;4911634;29;20287;-84
2023/03/02 07:42:27;;;;;;;320.93;59.70;;;1.00;99.90;;;0.50;82.04;99786.59;4903270;29;20251;-84
2023/03/02 07:44:54;;;;;;;319.07;59.00;;;0.70;99.90;;;0.57;81.70;99786.00;4917850;29;20263;-84
2023/03/02 07:47:22;;;;;;;327.23;61.43;;;0.80;99.90;;;0.62;81.45;99789.69;4919733;28;20239;-85
2023/03/02 07:49:49;;;;;;;318.60;59.43;;;1.00;99.90;;;0.78;81.18;99797.22;4917088;28;20250;-83
2023/03/02 07:52:16;;;;;;;331.60;63.07;;;0.90;99.90;;;0.82;81.29;99793.91;4900490;29;20267;-84
2023/03/02 07:54:43;;;;;;;337.97;66.37;;;0.90;99.90;;;0.97;80.69;99809.22;4907227;28;20258;-84
2023/03/02 07:57:14;;;;;;;327.97;63.40;;;1.00;99.90;;;1.00;80.53;99792.81;4904716;29;20247;-83
2023/03/02 07:59:42;;;;;;;328.97;62.90;;;1.20;99.90;;;1.09;80.27;99791.44;4902614;29;20326;-84
2023/03/02 08:02:14;;;;;;;328.03;63.20;;;1.10;99.90;;;1.23;79.99;99803.25;4914573;28;20238;-84
2023/03/02 08:04:42;;;;;;;326.50;63.83;;;1.30;99.90;;;1.24;79.80;99796.31;4901119;29;20302;-84
2023/03/02 08:07:09;;;;;;;322.43;61.17;;;1.30;99.90;;;1.35;79.35;99784.59;4916451;28;20275;-83
2023/03/02 08:09:38;;;;;;;336.20;67.77;;;1.50;99.90;;;1.48;78.88;99786.78;4909869;28;20326;-83
2023/03/02 08:12:05;;;;;;;336.67;66.87;;;1.70;99.90;;;1.46;79.00;99770.22;4916274;28;20292;-83
2023/03/02 08:14:33;;;;;;;336.60;67.33;;;1.50;99.90;;;1.65;78.37;99776.06;4905575;28;20274;-83
2023/03/02 08:17:01;;;;;;;353.40;74.63;;;1.70;99.90;;;1.64;78.43;99756.94;4907871;28;20298;-84
2023/03/02 08:19:28;;;;;;;337.87;69.93;;;1.70;99.90;;;1.79;78.08;99761.75;4914701;28;20303;-84
2023/03/02 08:21:56;;;;;;;358.87;76.23;;;1.90;99.90;;;1.86;77.94;99761.13;4911040;28;20737;-84
2023/03/02 08:27:05;;;;;;;362.03;76.47;;;2.00;99.90;;;2.03;77.15;99748.63;5403322;23;20233;-84
2023/03/02 08:29:33;;;;;;;380.50;84.60;;;2.10;99.90;;;2.14;77.15;99739.44;4945969;28;20245;-83
2023/03/02 08:32:00;;;;;;;339.10;70.20;;;2.20;99.90;;;2.29;76.86;99742.50;4951443;28;20673;-83
2023/03/02 08:34:27;;;;;;;339.73;70.23;;;2.40;99.90;;;2.48;76.31;99752.66;4952290;28;20256;-82
2023/03/02 08:36:54;;;;;;;326.07;65.87;;;2.70;99.90;;;2.47;76.19;99731.75;4945276;28;20246;-84
2023/03/02 08:39:22;;;;;;;338.87;74.47;;;2.90;99.90;;;2.50;75.95;99711.84;4934667;28;20297;-81
2023/03/02 08:41:50;;;;;;;336.77;71.30;;;2.50;99.90;;;2.55;75.77;99694.59;4935453;28;20305;-80
2023/03/02 08:44:20;;;;;;;345.13;74.03;;;2.60;99.90;;;2.57;75.22;99674.63;4937283;28;20317;-81
2023/03/02 08:46:49;;;;;;;333.77;69.83;;;2.80;99.90;;;2.68;75.01;99664.53;4947864;28;20247;-82
2023/03/02 08:49:18;;;;;;;370.33;83.87;;;3.50;99.90;;;2.82;74.88;99668.41;4935412;28;20234;-80
2023/03/02 08:51:45;;;;;;;342.17;73.63;;;3.70;99.90;;;2.78;74.67;99650.00;4931949;28;20260;-83
2023/03/02 08:54:13;;;;;;;339.77;73.47;;;3.50;99.90;;;2.92;74.68;99646.03;4936620;28;20243;-82
2023/03/02 08:56:40;;;;;;;351.97;79.23;;;2.90;99.90;;;2.98;74.15;99634.88;4933736;28;20301;-83
2023/03/02 08:59:12;;;;;;;344.83;76.03;;;3.00;99.90;;;3.17;73.66;99627.56;4929794;28;20253;-85
2023/03/02 09:02:14;;;;;;;365.53;89.90;;;3.20;99.90;;;3.23;73.42;99603.31;4920012;28;20511;-84
2023/03/02 09:05:17;;;;;;;344.10;75.40;;;3.20;99.90;;;3.25;73.35;99585.94;4903778;28;20240;-84
2023/03/02 09:07:44;;;;;;;348.30;79.33;;;3.30;99.90;;;3.43;73.29;99602.06;4929340;28;20246;-82
2023/03/02 09:10:11;;;;;;;377.50;90.33;;;3.90;99.90;;;3.68;72.59;99600.91;4930899;28;20293;-83
2023/03/02 09:12:38;;;;;;;346.17;81.00;;;4.00;99.90;;;3.74;72.69;99590.59;4926207;28;20253;-84
2023/03/02 09:15:06;;;;;;;338.60;77.20;;;3.70;99.90;;;3.80;72.22;99574.16;4931275;28;20303;-83
2023/03/02 09:17:33;;;;;;;355.40;88.47;;;3.80;99.90;;;3.84;71.91;99552.44;4934596;28;20250;-83
2023/03/02 09:20:00;;;;;;;343.13;81.57;;;3.80;99.90;;;3.83;71.61;99537.63;4933059;28;20297;-83
2023/03/02 09:22:27;;;;;;;360.83;87.97;;;4.20;99.90;;;3.92;71.49;99522.16;4935064;28;20230;-83
2023/03/02 09:24:54;;;;;;;334.43;76.63;;;3.90;99.90;;;4.06;71.19;99505.00;4935766;28;20238;-83
2023/03/02 09:27:21;;;;;;;351.70;84.13;;;4.10;99.90;;;4.10;71.06;99498.97;4931334;28;20253;-84
2023/03/02 09:29:48;;;;;;;351.33;86.17;;;4.10;99.90;;;4.32;70.89;99509.84;4934286;28;20237;-84
2023/03/02 09:32:15;;;;;;;345.57;83.53;;;4.30;99.90;;;4.55;70.63;99516.41;4926861;28;20281;-85
2023/03/02 09:34:43;;;;;;;352.83;101.67;;;4.40;99.90;;;4.53;70.75;99510.25;4924748;28;20349;-85
2023/03/02 09:37:10;;;;;;;346.13;89.07;;;4.50;99.90;;;4.82;70.17;99511.66;4935857;28;20242;-82
2023/03/02 09:39:38;;;;;;;358.17;93.20;;;4.70;99.90;;;4.80;69.84;99474.06;4932327;28;20297;-82
2023/03/02 09:42:58;;;;;;;341.97;86.33;;;4.80;99.90;;;5.08;69.73;99482.38;4937178;28;20231;-82
2023/03/02 09:45:54;;;;;;;354.20;87.73;;;4.90;99.90;;;4.90;69.32;99441.06;4938807;28;20250;-82
2023/03/02 09:48:39;;;;;;;341.20;84.63;;;4.90;99.90;;;4.95;69.35;99443.75;4940192;28;20306;-83
2023/03/02 09:51:32;;;;;;;350.83;87.83;;;4.90;99.90;;;5.06;69.36;99447.41;4938665;28;20238;-84
2023/03/02 09:54:11;;;;;;;342.87;87.87;;;5.00;99.90;;;5.29;69.00;99438.19;4938811;28;20277;-83
2023/03/02 09:56:53;;;;;;;346.57;90.23;;;5.20;99.90;;;5.41;68.57;99416.50;4936537;28;20253;-83
2023/03/02 09:59:26;;;;;;;346.53;91.97;;;5.30;99.90;;;5.44;68.88;99416.53;4931129;28;20249;-83
2023/03/02 10:02:23;;;;;;;346.20;91.67;;;5.40;99.90;;;5.57;67.93;99392.22;4953199;28;20249;-83
2023/03/02 10:04:54;;;;;;;342.52;89.88;;;5.50;99.90;;;5.78;67.74;99376.75;4949127;28;20313;-85
2023/03/02 10:07:39;;;;;;;366.27;103.27;;;5.60;99.90;;;6.03;67.52;99392.78;4940697;28;20245;-84
2023/03/02 10:10:59;;;;;;;359.38;100.03;;;5.90;99.90;;;6.00;66.93;99343.78;4944939;28;20618;-84
2023/03/02 10:13:42;;;;;;;352.27;96.18;;;6.00;99.90;;;6.10;66.63;99332.50;4936639;28;20230;-83
2023/03/02 10:16:36;;;;;;;348.02;97.43;;;6.00;99.90;;;6.08;66.48;99305.34;4942791;28;20241;-83
2023/03/02 10:19:23;;;;;;;348.33;97.13;;;6.00;99.90;;;6.01;66.46;99274.66;4971596;28;20245;-82
2023/03/02 10:22:01;;;;;;;356.87;102.53;;;6.10;99.90;;;6.17;66.28;99283.56;4931550;28;20266;-82